createdAt,value
2019-03-01T02:16:58.565Z,99.70
2019-03-01T02:19:27.947Z,99.90
2019-03-01T02:21:57.805Z,99.90
2019-03-01T02:24:28.485Z,99.90
2019-03-01T02:27:29.913Z,99.90
2019-03-01T02:30:00.719Z,99.90
2019-03-01T04:14:38.890Z,99.90
2019-03-01T04:17:08.396Z,99.90
2019-03-01T04:19:37.838Z,99.90
2019-03-01T04:22:07.304Z,99.90
2019-03-01T04:24:36.896Z,99.90
2019-03-01T04:27:08.052Z,99.90
2019-03-01T05:29:16.074Z,99.90
2019-03-01T07:19:57.284Z,99.90
2019-03-01T07:22:26.914Z,95.70
2019-03-01T07:24:56.576Z,95.50
2019-03-01T07:27:26.066Z,95.40
2019-03-01T07:29:55.532Z,95.60
2019-03-01T07:32:25.309Z,95.40
2019-03-01T07:34:56.087Z,95.10
2019-03-01T07:37:26.584Z,95.10
2019-03-01T07:39:56.117Z,95.20
2019-03-01T07:42:25.674Z,95.60
2019-03-01T07:44:55.434Z,95.50
2019-03-01T07:47:24.923Z,95.50
2019-03-01T07:49:55.399Z,95.30
2019-03-01T07:52:24.922Z,95.50
2019-03-01T07:54:54.698Z,95.40
2019-03-01T07:57:24.257Z,95.40
2019-03-01T08:00:14.259Z,94.30
2019-03-01T08:03:03.442Z,93.50
2019-03-01T08:05:39.317Z,92.90
2019-03-01T08:08:07.618Z,92.80
2019-03-01T08:10:37.523Z,92.90
2019-03-01T08:13:06.981Z,92.80
2019-03-01T08:15:36.406Z,92.80
2019-03-01T08:18:08.245Z,92.70
2019-03-01T08:20:36.984Z,92.40
2019-03-01T08:23:06.341Z,92.30
2019-03-01T08:25:36.870Z,92.20
2019-03-01T08:28:06.313Z,91.90
2019-03-01T08:30:38.494Z,91.40
2019-03-01T08:33:10.145Z,91.20
2019-03-01T08:35:39.550Z,91.10
2019-03-01T09:10:52.143Z,91.10
2019-03-01T09:13:21.620Z,76.30
2019-03-01T09:15:51.073Z,73.60
2019-03-01T09:18:20.518Z,72.60
2019-03-01T09:20:51.085Z,71.70
2019-03-01T09:23:26.433Z,70.70
2019-03-01T09:33:22.936Z,70.20
2019-03-01T09:36:02.197Z,70.50
2019-03-01T09:38:32.798Z,71.40
2019-03-01T09:41:04.502Z,72.60
2019-03-01T10:03:30.778Z,74.30
2019-03-01T10:11:00.566Z,84.00
2019-03-01T10:13:31.358Z,85.10
2019-03-01T10:16:00.851Z,86.00
2019-03-01T10:18:30.563Z,86.50
2019-03-01T10:21:00.064Z,87.00
2019-03-01T10:23:29.480Z,87.30
2019-03-01T10:25:58.978Z,86.90
2019-03-01T10:28:29.626Z,87.20
2019-03-01T10:30:59.046Z,87.40
2019-03-01T10:33:28.545Z,86.90
2019-03-01T10:35:59.488Z,86.90
2019-03-01T10:38:28.978Z,86.70
2019-03-01T10:40:58.422Z,86.10
2019-03-01T10:43:28.082Z,86.10
2019-03-01T10:45:58.754Z,86.00
2019-03-01T10:48:28.842Z,86.40
2019-03-01T10:50:59.991Z,87.00
2019-03-01T10:53:29.387Z,87.10
2019-03-01T10:56:00.053Z,86.90
2019-03-01T10:58:30.023Z,86.20
2019-03-01T11:00:59.467Z,86.10
2019-03-01T11:03:28.874Z,88.00
2019-03-01T11:05:58.362Z,87.80
2019-03-01T11:08:27.839Z,88.10
2019-03-01T11:10:59.014Z,88.90
2019-03-01T11:13:28.534Z,88.20
2019-03-01T11:15:58.095Z,88.10
2019-03-01T11:18:27.490Z,88.50
2019-03-01T11:20:57.433Z,87.90
2019-03-01T11:23:26.898Z,86.50
2019-03-01T11:25:56.442Z,85.60
2019-03-01T11:28:44.909Z,85.40
2019-03-01T11:31:14.546Z,85.90
2019-03-01T11:33:44.062Z,84.80
2019-03-01T11:36:13.776Z,84.30
2019-03-01T11:38:43.583Z,84.50
2019-03-01T11:41:13.022Z,85.20
2019-03-01T11:43:42.412Z,84.70
2019-03-01T11:46:11.865Z,84.00
2019-03-01T11:48:41.493Z,83.60
2019-03-01T11:51:11.119Z,84.20
2019-03-01T11:53:40.500Z,83.80
2019-03-01T11:56:09.900Z,82.40
2019-03-01T11:58:39.623Z,82.10
2019-03-01T12:01:16.882Z,81.70
2019-03-01T12:03:40.217Z,82.10
2019-03-01T12:06:09.636Z,82.60
2019-03-01T12:08:38.990Z,81.70
2019-03-01T12:11:08.547Z,81.50
2019-03-01T12:13:38.308Z,81.70
2019-03-01T12:16:07.872Z,82.10
2019-03-01T12:18:37.293Z,81.20
2019-03-01T12:21:07.102Z,81.00
2019-03-01T12:23:36.531Z,81.00
2019-03-01T12:26:06.011Z,82.20
2019-03-01T12:28:35.493Z,82.90
2019-03-01T12:31:05.029Z,83.40
2019-03-01T12:33:34.467Z,84.50
2019-03-01T12:36:04.004Z,85.00
2019-03-01T12:38:33.406Z,85.90
2019-03-01T12:41:02.821Z,86.40
2019-03-01T12:43:32.527Z,86.90
2019-03-01T12:46:01.926Z,87.40
2019-03-01T12:48:31.347Z,87.70
2019-03-01T12:51:01.065Z,88.20
2019-03-01T12:53:30.485Z,88.50
2019-03-01T12:55:59.940Z,88.60
2019-03-01T12:58:29.388Z,89.30
2019-03-01T13:00:58.766Z,89.50
2019-03-01T13:03:29.989Z,90.00
2019-03-01T13:06:00.630Z,90.10
2019-03-01T13:08:30.127Z,90.20
2019-03-01T13:10:59.610Z,90.40
2019-03-01T13:13:29.134Z,90.30
2019-03-01T13:15:58.543Z,90.20
2019-03-01T13:18:28.002Z,90.30
2019-03-01T13:20:57.387Z,90.40
2019-03-01T13:23:26.794Z,90.60
2019-03-01T13:25:56.438Z,90.70
2019-03-01T13:28:26.202Z,90.80
2019-03-01T13:30:55.920Z,90.80
2019-03-01T13:33:25.286Z,90.90
2019-03-01T13:35:54.834Z,91.00
2019-03-01T13:38:24.297Z,91.20
2019-03-01T13:40:54.274Z,91.30
2019-03-01T13:43:28.296Z,91.40
2019-03-01T13:45:58.024Z,91.40
2019-03-01T13:48:28.858Z,91.30
2019-03-01T13:50:58.371Z,91.30
2019-03-01T13:53:30.214Z,91.50
2019-03-01T13:56:01.153Z,91.50
2019-03-01T13:58:31.016Z,91.40
2019-03-01T14:01:00.471Z,91.30
2019-03-01T14:03:29.947Z,91.30
2019-03-01T14:05:59.555Z,91.30
2019-03-01T14:08:30.482Z,91.30
2019-03-01T14:11:01.102Z,91.20
2019-03-01T14:13:32.343Z,91.30
2019-03-01T14:16:04.646Z,91.20
2019-03-01T14:18:36.779Z,91.10
2019-03-01T14:21:06.133Z,91.20
2019-03-01T14:23:36.936Z,91.10
2019-03-01T14:26:06.493Z,91.10
2019-03-01T14:28:40.949Z,91.20
2019-03-01T14:31:09.774Z,91.30
2019-03-01T14:33:40.430Z,91.50
2019-03-01T14:36:12.609Z,91.70
2019-03-01T14:38:42.326Z,91.90
2019-03-01T14:41:12.990Z,92.00
2019-03-01T14:43:42.646Z,92.20
2019-03-01T14:46:13.464Z,92.50
2019-03-01T14:48:46.115Z,92.60
2019-03-01T14:51:15.228Z,92.70
2019-03-01T14:53:45.161Z,92.70
2019-03-01T14:56:21.605Z,93.00
2019-03-01T14:58:58.912Z,93.10
2019-03-01T15:01:36.675Z,93.20
2019-03-01T15:04:06.173Z,93.20
2019-03-01T15:06:37.309Z,93.40
2019-03-01T15:09:07.840Z,93.50
2019-03-01T15:11:41.054Z,93.70
2019-03-01T15:14:30.565Z,94.10
2019-03-01T15:17:00.290Z,94.30
2019-03-01T15:19:29.896Z,94.70
2019-03-01T15:21:59.307Z,94.70
2019-03-01T15:24:49.326Z,94.90
2019-03-01T15:27:20.352Z,95.20
2019-03-01T15:29:49.716Z,95.30
2019-03-01T15:32:19.251Z,95.20
2019-03-01T15:34:48.751Z,95.20
2019-03-01T15:37:18.128Z,95.40
2019-03-01T15:39:47.803Z,95.40
2019-03-01T15:42:20.350Z,95.40
2019-03-01T15:44:49.646Z,95.50
2019-03-01T15:47:20.079Z,95.60
2019-03-01T15:49:51.384Z,95.70
2019-03-01T15:52:22.491Z,95.60
2019-03-01T15:54:52.594Z,95.40
2019-03-01T15:57:22.229Z,95.30
2019-03-01T15:59:51.761Z,95.30
2019-03-01T16:02:21.188Z,95.20
2019-03-01T16:04:50.582Z,95.10
2019-03-01T16:07:20.047Z,94.90
2019-03-01T16:09:49.679Z,94.70
2019-03-01T16:12:19.312Z,95.00
2019-03-01T16:14:49.004Z,95.00
2019-03-01T16:17:18.432Z,95.00
2019-03-01T16:19:50.452Z,95.00
2019-03-01T16:22:19.687Z,95.40
2019-03-01T16:24:49.118Z,95.10
2019-03-01T16:27:18.680Z,95.20
2019-03-01T16:29:48.112Z,95.30
2019-03-01T16:32:17.958Z,95.20
2019-03-01T16:34:49.065Z,95.30
2019-03-01T16:37:18.783Z,95.30
2019-03-01T16:39:49.435Z,95.30
2019-03-01T16:42:18.968Z,95.30
2019-03-01T16:44:48.450Z,95.30
2019-03-01T16:47:17.996Z,95.40
2019-03-01T16:49:47.601Z,95.40
2019-03-01T16:52:17.069Z,95.40
2019-03-01T16:54:47.545Z,95.30
2019-03-01T16:57:18.683Z,95.40
2019-03-01T16:59:49.407Z,95.40
2019-03-01T17:02:20.112Z,95.50
2019-03-01T17:04:49.900Z,95.50
2019-03-01T17:07:21.441Z,95.60
2019-03-01T17:09:51.067Z,95.60
2019-03-01T17:12:22.953Z,95.60
2019-03-01T17:14:52.728Z,95.70
2019-03-01T17:17:22.398Z,95.80
2019-03-01T17:19:52.330Z,95.80
2019-03-01T17:22:23.193Z,95.80
2019-03-01T17:24:53.691Z,95.80
2019-03-01T17:27:23.120Z,95.80
2019-03-01T17:29:54.019Z,95.80
2019-03-01T17:32:23.982Z,95.80
2019-03-01T17:34:54.175Z,95.80
2019-03-01T17:37:25.858Z,95.90
2019-03-01T17:39:56.606Z,96.10
2019-03-01T17:42:26.847Z,96.10
2019-03-01T17:44:56.662Z,96.10
2019-03-01T17:47:26.685Z,96.20
2019-03-01T17:49:56.882Z,96.20
2019-03-01T17:52:30.628Z,96.10
2019-03-01T17:55:01.525Z,96.10
2019-03-01T17:57:33.108Z,96.20
2019-03-01T18:00:03.796Z,96.20
2019-03-01T18:02:33.999Z,96.70
2019-03-01T18:05:04.576Z,96.40
2019-03-01T18:07:34.925Z,96.40
2019-03-01T18:10:10.470Z,96.40
2019-03-01T18:12:40.775Z,96.30
2019-03-01T18:15:12.504Z,96.40
2019-03-01T18:17:43.747Z,96.30
2019-03-01T18:20:14.320Z,96.50
2019-03-01T18:22:44.586Z,96.60
2019-03-01T18:25:15.025Z,96.60
2019-03-01T18:27:45.536Z,96.50
2019-03-01T18:30:19.738Z,96.60
2019-03-01T18:32:49.728Z,96.90
2019-03-01T18:35:20.055Z,96.90
2019-03-01T18:37:51.389Z,96.90
2019-03-01T18:40:22.762Z,96.80
2019-03-01T18:42:53.391Z,96.90
2019-03-01T18:45:23.654Z,96.90
2019-03-01T18:47:54.099Z,97.50
2019-03-01T18:50:27.724Z,97.50
2019-03-01T18:52:58.899Z,97.70
2019-03-01T18:55:29.246Z,97.70
2019-03-01T18:57:59.672Z,97.70
2019-03-01T19:00:35.639Z,97.70
2019-03-01T19:03:05.468Z,97.70
2019-03-01T19:05:36.770Z,97.80
2019-03-01T19:08:08.256Z,97.90
2019-03-01T19:10:38.675Z,98.30
2019-03-01T19:13:09.098Z,98.10
2019-03-01T19:15:39.677Z,98.00
2019-03-01T19:18:10.088Z,98.10
2019-03-01T19:20:41.436Z,98.10
2019-03-01T19:23:14.196Z,98.40
2019-03-01T19:25:44.681Z,98.30
2019-03-01T19:28:15.412Z,98.30
2019-03-01T19:30:49.341Z,98.70
2019-03-01T19:33:19.293Z,98.50
2019-03-01T19:35:49.979Z,98.60
2019-03-01T19:38:21.782Z,98.40
2019-03-01T19:40:55.124Z,98.40
2019-03-01T19:43:25.728Z,98.40
2019-03-01T19:45:56.244Z,98.40
2019-03-01T19:48:26.516Z,98.80
2019-03-01T19:50:58.472Z,98.80
2019-03-01T19:53:30.215Z,98.80
2019-03-01T19:56:00.649Z,98.70
2019-03-01T19:58:30.990Z,98.70
2019-03-01T20:01:01.972Z,99.00
2019-03-01T20:03:32.352Z,99.20
2019-03-01T20:06:04.473Z,99.10
2019-03-01T20:08:35.378Z,99.00
2019-03-01T20:11:05.817Z,99.10
2019-03-01T20:13:56.177Z,99.20
2019-03-01T20:16:26.734Z,99.30
2019-03-01T20:18:56.940Z,99.20
2019-03-01T20:21:27.240Z,99.20
2019-03-01T20:24:17.756Z,99.20
2019-03-01T20:26:48.222Z,99.10
2019-03-01T20:29:18.596Z,99.10
2019-03-01T20:31:48.869Z,99.20
2019-03-01T20:34:19.198Z,99.10
2019-03-01T20:36:52.876Z,99.20
2019-03-01T20:39:21.623Z,99.20
2019-03-01T20:41:52.149Z,99.40
2019-03-01T20:44:22.678Z,99.30
2019-03-01T20:46:53.953Z,99.30
2019-03-01T20:49:24.426Z,99.30
2019-03-01T20:51:54.566Z,99.40
2019-03-01T20:54:25.821Z,99.30
2019-03-01T20:56:57.493Z,99.30
2019-03-01T20:59:27.699Z,99.50
2019-03-01T21:01:58.013Z,99.30
2019-03-01T21:04:28.378Z,99.30
2019-03-01T21:06:58.512Z,99.60
2019-03-01T21:09:28.695Z,99.60
2019-03-01T21:12:01.111Z,99.30
2019-03-01T21:14:31.458Z,99.30
2019-03-01T21:17:01.633Z,99.30
2019-03-01T21:19:31.520Z,99.50
2019-03-01T21:22:04.623Z,99.30
2019-03-01T21:24:33.451Z,99.40
2019-03-01T21:27:04.374Z,99.40
2019-03-01T21:29:34.192Z,99.30
2019-03-01T21:32:04.582Z,99.30
2019-03-01T21:34:34.909Z,99.30
2019-03-01T21:37:06.979Z,99.60
2019-03-01T21:39:36.649Z,99.30
2019-03-01T21:42:06.123Z,99.30
2019-03-01T21:44:35.845Z,99.30
2019-03-01T21:47:06.953Z,99.50
2019-03-01T21:49:38.020Z,99.80
2019-03-01T21:52:08.264Z,99.80
2019-03-01T21:54:37.714Z,99.80
2019-03-01T21:57:09.069Z,99.80
2019-03-01T21:59:38.567Z,99.90
2019-03-01T22:02:08.070Z,99.90
2019-03-01T22:04:38.345Z,99.90
2019-03-01T22:07:07.973Z,99.90
2019-03-01T22:09:37.367Z,99.90
2019-03-01T22:12:07.016Z,99.90
2019-03-01T22:14:38.052Z,99.90
2019-03-01T22:17:10.377Z,99.90
2019-03-01T22:19:58.856Z,99.90
2019-03-01T22:22:28.486Z,99.90
2019-03-01T22:24:58.622Z,99.90
2019-03-01T22:27:30.646Z,99.90
2019-03-01T22:30:01.318Z,99.90
2019-03-01T22:32:30.880Z,99.90
2019-03-01T22:35:03.168Z,99.90
2019-03-01T22:37:31.528Z,99.90
2019-03-01T22:40:00.910Z,99.90
2019-03-01T22:42:30.349Z,99.90
2019-03-01T22:44:59.766Z,99.90
2019-03-01T22:47:32.322Z,99.90
2019-03-01T22:50:00.365Z,99.90
2019-03-01T22:52:31.551Z,99.90
2019-03-01T22:55:02.811Z,99.90
2019-03-01T22:57:34.146Z,99.90
2019-03-01T23:00:03.590Z,99.90
2019-03-01T23:02:35.471Z,99.90
2019-03-01T23:05:25.726Z,99.90
2019-03-01T23:07:56.874Z,99.90
2019-03-01T23:10:26.530Z,99.90
2019-03-01T23:12:56.280Z,99.90
2019-03-01T23:15:25.780Z,99.90
2019-03-01T23:17:55.548Z,99.90
2019-03-01T23:20:26.670Z,99.90
2019-03-01T23:22:56.188Z,99.90
2019-03-01T23:25:25.623Z,99.90
2019-03-01T23:27:55.073Z,99.90
2019-03-01T23:30:25.826Z,99.90
2019-03-01T23:32:55.989Z,99.90
2019-03-01T23:35:25.608Z,99.90
2019-03-01T23:37:54.987Z,99.90
2019-03-01T23:40:25.608Z,99.90
2019-03-01T23:42:57.133Z,99.90
2019-03-01T23:45:26.728Z,99.90
2019-03-01T23:47:56.238Z,99.90
2019-03-01T23:50:25.778Z,99.90
2019-03-01T23:52:58.707Z,99.90
2019-03-01T23:55:28.153Z,99.90
2019-03-01T23:58:05.730Z,99.90
